createdAt,value
2022-11-25T00:01:13.744Z,2.11
2022-11-25T00:03:42.025Z,2.08
2022-11-25T00:06:30.202Z,2.09
2022-11-25T00:09:05.467Z,2.11
2022-11-25T00:11:38.695Z,2.11
2022-11-25T00:14:06.751Z,2.09
2022-11-25T00:16:33.647Z,2.11
2022-11-25T00:19:00.417Z,2.11
2022-11-25T00:21:29.710Z,2.10
2022-11-25T00:23:59.172Z,2.14
2022-11-25T00:26:27.768Z,2.15
2022-11-25T00:28:54.999Z,2.15
2022-11-25T00:31:27.008Z,2.15
2022-11-25T00:33:54.390Z,2.18
2022-11-25T00:36:29.717Z,2.21
2022-11-25T00:38:59.240Z,2.21
2022-11-25T00:41:48.031Z,2.20
2022-11-25T00:44:36.334Z,2.15
2022-11-25T00:47:20.761Z,2.14
2022-11-25T00:49:56.342Z,2.15
2022-11-25T00:52:26.592Z,2.14
2022-11-25T00:54:53.784Z,2.16
2022-11-25T00:57:23.017Z,2.17
2022-11-25T00:59:52.861Z,2.18
2022-11-25T01:02:20.421Z,2.13
2022-11-25T01:04:47.735Z,2.16
2022-11-25T01:07:15.144Z,2.18
2022-11-25T01:09:41.862Z,2.16
2022-11-25T01:12:09.790Z,2.17
2022-11-25T01:14:38.346Z,2.13
2022-11-25T01:17:05.550Z,2.12
2022-11-25T01:19:32.207Z,2.14
2022-11-25T01:21:59.055Z,2.14
2022-11-25T01:24:26.768Z,2.15
2022-11-25T01:26:55.609Z,2.17
2022-11-25T01:29:22.609Z,2.15
2022-11-25T01:31:49.442Z,2.09
2022-11-25T01:34:19.361Z,2.10
2022-11-25T01:36:46.301Z,2.11
2022-11-25T01:39:27.011Z,2.12
2022-11-25T01:41:57.025Z,2.15
2022-11-25T01:44:28.226Z,2.19
2022-11-25T01:47:01.227Z,2.20
2022-11-25T01:49:42.813Z,2.23
2022-11-25T01:52:19.028Z,2.22
2022-11-25T01:54:58.369Z,2.23
2022-11-25T01:57:31.513Z,2.22
2022-11-25T02:00:01.350Z,2.21
2022-11-25T02:02:29.217Z,2.21
2022-11-25T02:04:57.921Z,2.21
2022-11-25T02:07:39.043Z,2.19
2022-11-25T02:10:12.026Z,2.21
2022-11-25T02:12:41.476Z,2.22
2022-11-25T02:15:09.090Z,2.21
2022-11-25T02:17:35.693Z,2.21
2022-11-25T02:20:16.283Z,2.21
2022-11-25T02:23:26.805Z,2.22
2022-11-25T02:25:54.363Z,2.14
2022-11-25T02:28:27.174Z,2.13
2022-11-25T02:30:54.772Z,2.12
2022-11-25T02:33:21.991Z,2.13
2022-11-25T02:35:50.450Z,2.16
2022-11-25T02:38:31.198Z,2.14
2022-11-25T02:41:12.029Z,2.15
2022-11-25T02:43:39.716Z,2.16
2022-11-25T02:46:11.759Z,2.17
2022-11-25T02:49:07.306Z,2.21
2022-11-25T02:51:30.496Z,2.23
2022-11-25T02:53:59.015Z,2.28
2022-11-25T02:56:29.515Z,2.31
2022-11-25T02:58:56.527Z,2.30
2022-11-25T03:01:23.335Z,2.29
2022-11-25T03:03:50.175Z,2.28
2022-11-25T03:06:17.088Z,2.23
2022-11-25T03:08:43.734Z,2.23
2022-11-25T03:11:10.440Z,2.16
2022-11-25T03:13:38.509Z,2.18
2022-11-25T03:16:07.799Z,2.21
2022-11-25T03:18:34.917Z,2.21
2022-11-25T03:21:01.722Z,2.20
2022-11-25T03:23:28.707Z,2.15
2022-11-25T03:25:55.688Z,2.07
2022-11-25T03:28:22.463Z,2.04
2022-11-25T03:30:49.098Z,2.04
2022-11-25T03:33:15.731Z,2.05
2022-11-25T03:35:42.388Z,2.05
2022-11-25T03:38:09.156Z,2.04
2022-11-25T03:40:38.126Z,2.08
2022-11-25T03:43:06.475Z,2.09
2022-11-25T03:45:33.205Z,2.08
2022-11-25T03:48:00.005Z,2.09
2022-11-25T03:50:26.744Z,2.11
2022-11-25T03:52:53.352Z,2.11
2022-11-25T03:55:20.683Z,2.13
2022-11-25T03:57:47.239Z,2.13
2022-11-25T04:00:14.065Z,2.12
2022-11-25T04:02:40.857Z,2.14
2022-11-25T04:05:10.302Z,2.14
2022-11-25T04:07:38.181Z,2.12
2022-11-25T04:10:08.193Z,2.14
2022-11-25T04:12:46.903Z,2.16
2022-11-25T04:15:15.759Z,2.19
2022-11-25T04:17:45.994Z,2.27
2022-11-25T04:20:13.513Z,2.28
2022-11-25T04:22:40.657Z,2.30
2022-11-25T04:25:09.539Z,2.35
2022-11-25T04:27:36.408Z,2.33
2022-11-25T04:30:03.480Z,2.36
2022-11-25T04:32:30.244Z,2.37
2022-11-25T04:34:56.874Z,2.39
2022-11-25T04:37:23.584Z,2.41
2022-11-25T04:39:50.494Z,2.41
2022-11-25T04:42:34.441Z,2.45
2022-11-25T04:45:26.511Z,2.44
2022-11-25T04:47:50.998Z,2.44
2022-11-25T04:50:21.553Z,2.44
2022-11-25T04:52:48.285Z,2.44
2022-11-25T04:55:15.071Z,2.47
2022-11-25T04:57:41.649Z,2.40
2022-11-25T05:00:09.661Z,2.40
2022-11-25T05:02:36.388Z,2.44
2022-11-25T05:05:03.363Z,2.40
2022-11-25T05:07:30.232Z,2.35
2022-11-25T05:09:57.716Z,2.29
2022-11-25T05:12:28.708Z,2.25
2022-11-25T05:14:56.003Z,2.27
2022-11-25T05:17:25.962Z,2.22
2022-11-25T05:19:54.120Z,2.23
2022-11-25T05:22:24.775Z,2.24
2022-11-25T05:24:51.769Z,2.24
2022-11-25T05:27:22.557Z,2.25
2022-11-25T05:29:55.482Z,2.25
2022-11-25T05:32:23.091Z,2.26
2022-11-25T05:34:51.250Z,2.29
2022-11-25T05:37:23.978Z,2.30
2022-11-25T05:39:51.415Z,2.28
2022-11-25T05:42:18.177Z,2.33
2022-11-25T05:44:44.781Z,2.34
2022-11-25T05:47:11.365Z,2.34
2022-11-25T05:49:38.275Z,2.37
2022-11-25T05:52:05.089Z,2.41
2022-11-25T05:54:31.775Z,2.42
2022-11-25T05:56:58.428Z,2.46
2022-11-25T05:59:25.136Z,2.46
2022-11-25T06:01:53.911Z,2.46
2022-11-25T06:04:20.498Z,2.46
2022-11-25T06:06:47.416Z,2.43
2022-11-25T06:09:14.206Z,2.53
2022-11-25T06:11:42.211Z,2.52
2022-11-25T06:14:08.929Z,2.60
2022-11-25T06:16:36.632Z,2.64
2022-11-25T06:19:07.245Z,2.66
2022-11-25T06:21:34.951Z,2.65
2022-11-25T06:24:07.644Z,2.65
2022-11-25T06:26:34.291Z,2.66
2022-11-25T06:29:00.886Z,2.67
2022-11-25T06:31:27.677Z,2.66
2022-11-25T06:33:55.064Z,2.73
2022-11-25T06:36:23.121Z,2.78
2022-11-25T06:38:52.790Z,2.82
2022-11-25T06:41:20.553Z,2.85
2022-11-25T06:43:47.243Z,2.89
2022-11-25T06:46:19.698Z,2.93
2022-11-25T06:48:49.748Z,2.95
2022-11-25T06:51:19.748Z,2.98
2022-11-25T06:53:46.986Z,3.03
2022-11-25T06:56:18.937Z,3.06
2022-11-25T06:58:46.904Z,3.08
2022-11-25T07:01:19.773Z,3.11
2022-11-25T07:03:48.739Z,3.14
2022-11-25T07:06:17.372Z,3.15
2022-11-25T07:08:44.934Z,3.15
2022-11-25T07:11:18.117Z,3.19
2022-11-25T07:13:45.014Z,3.21
2022-11-25T07:16:12.647Z,3.27
2022-11-25T07:18:40.242Z,3.31
2022-11-25T07:21:16.259Z,3.33
2022-11-25T07:23:45.175Z,3.38
2022-11-25T07:26:14.655Z,3.40
2022-11-25T07:28:42.300Z,3.43
2022-11-25T07:31:24.838Z,3.49
2022-11-25T07:34:05.781Z,3.56
2022-11-25T07:36:34.510Z,3.61
2022-11-25T07:39:05.083Z,3.67
2022-11-25T07:41:31.878Z,3.72
2022-11-25T07:44:05.555Z,3.76
2022-11-25T07:46:38.758Z,3.86
2022-11-25T07:49:13.999Z,3.93
2022-11-25T07:51:41.823Z,4.00
2022-11-25T07:54:11.168Z,4.03
2022-11-25T07:56:39.402Z,4.05
2022-11-25T07:59:07.146Z,4.05
2022-11-25T08:01:33.867Z,4.07
2022-11-25T08:04:00.561Z,4.09
2022-11-25T08:06:29.978Z,4.17
2022-11-25T08:08:59.488Z,4.22
2022-11-25T08:11:29.409Z,4.22
2022-11-25T08:13:56.952Z,4.27
2022-11-25T08:16:27.455Z,4.29
2022-11-25T08:19:01.221Z,4.30
2022-11-25T08:21:28.735Z,4.34
2022-11-25T08:23:55.612Z,4.32
2022-11-25T08:26:24.044Z,4.23
2022-11-25T08:28:50.780Z,4.12
2022-11-25T08:31:24.607Z,4.10
2022-11-25T08:33:53.193Z,3.95
2022-11-25T08:36:21.373Z,3.92
2022-11-25T08:38:52.293Z,4.14
2022-11-25T08:41:21.605Z,4.33
2022-11-25T08:43:48.705Z,4.32
2022-11-25T08:46:19.999Z,4.37
2022-11-25T08:48:48.046Z,4.40
2022-11-25T08:51:18.947Z,4.33
2022-11-25T08:53:46.298Z,4.36
2022-11-25T08:56:13.783Z,4.34
2022-11-25T08:58:40.609Z,4.44
2022-11-25T09:01:08.785Z,4.35
2022-11-25T09:03:38.663Z,4.44
2022-11-25T09:06:06.567Z,4.46
2022-11-25T09:08:35.073Z,4.56
2022-11-25T09:11:03.848Z,4.67
2022-11-25T09:13:33.079Z,4.77
2022-11-25T09:16:01.502Z,4.90
2022-11-25T09:18:30.413Z,5.03
2022-11-25T09:20:57.900Z,5.29
2022-11-25T09:23:25.825Z,5.44
2022-11-25T09:25:57.902Z,5.57
2022-11-25T09:28:26.880Z,5.71
2022-11-25T09:30:56.003Z,5.84
2022-11-25T09:33:23.359Z,5.87
2022-11-25T09:35:50.544Z,5.87
2022-11-25T09:38:17.324Z,5.87
2022-11-25T09:41:05.667Z,6.19
2022-11-25T09:44:24.747Z,7.56
2022-11-25T09:47:17.426Z,8.96
2022-11-25T09:49:55.279Z,9.24
2022-11-25T09:52:43.396Z,9.05
2022-11-25T09:55:19.818Z,8.91
2022-11-25T09:58:18.506Z,8.62
2022-11-25T10:00:50.156Z,8.50
2022-11-25T10:03:30.733Z,8.54
2022-11-25T10:06:27.640Z,8.45
2022-11-25T10:09:11.540Z,8.40
2022-11-25T10:11:53.922Z,8.32
2022-11-25T10:14:42.953Z,8.17
2022-11-25T10:17:43.159Z,7.94
2022-11-25T10:20:20.016Z,7.68
2022-11-25T10:22:50.671Z,7.29
2022-11-25T10:25:20.428Z,7.14
2022-11-25T10:27:58.811Z,7.05
2022-11-25T10:30:40.974Z,6.94
2022-11-25T10:33:14.089Z,6.96
2022-11-25T10:35:56.257Z,7.06
2022-11-25T10:38:30.665Z,7.10
2022-11-25T10:40:57.351Z,7.44
2022-11-25T10:43:30.224Z,8.48
2022-11-25T10:46:15.805Z,9.31
2022-11-25T10:48:53.739Z,9.48
2022-11-25T10:51:27.109Z,9.67
2022-11-25T10:54:12.210Z,9.72
2022-11-25T10:56:59.529Z,9.62
2022-11-25T10:59:33.658Z,9.52
2022-11-25T11:02:29.916Z,9.25
2022-11-25T11:05:14.518Z,8.85
2022-11-25T11:07:44.064Z,8.30
2022-11-25T11:10:13.870Z,7.90
2022-11-25T11:13:01.232Z,7.58
2022-11-25T11:15:42.699Z,7.45
2022-11-25T11:18:38.431Z,7.41
2022-11-25T11:21:23.829Z,7.38
2022-11-25T11:23:55.737Z,7.51
2022-11-25T11:26:36.081Z,7.66
2022-11-25T11:29:19.698Z,7.76
2022-11-25T11:31:50.471Z,7.67
2022-11-25T11:34:42.871Z,7.59
2022-11-25T11:37:39.124Z,7.60
2022-11-25T11:40:22.435Z,7.57
2022-11-25T11:42:55.517Z,7.55
2022-11-25T11:45:25.165Z,7.53
2022-11-25T11:48:34.687Z,7.54
2022-11-25T11:51:25.953Z,7.49
2022-11-25T11:54:16.167Z,7.41
2022-11-25T11:56:55.023Z,7.42
2022-11-25T11:59:46.983Z,7.46
2022-11-25T12:02:50.134Z,7.76
2022-11-25T12:05:24.015Z,7.69
2022-11-25T12:08:06.042Z,7.53
2022-11-25T12:10:53.141Z,7.60
2022-11-25T12:13:19.891Z,7.80
2022-11-25T12:16:01.493Z,7.67
2022-11-25T12:19:05.604Z,7.79
2022-11-25T12:22:19.803Z,7.66
2022-11-25T12:24:57.905Z,7.57
2022-11-25T12:27:40.883Z,7.61
2022-11-25T12:30:41.747Z,7.71
2022-11-25T12:33:20.940Z,7.76
2022-11-25T12:36:10.642Z,7.82
2022-11-25T12:38:57.397Z,7.67
2022-11-25T12:41:47.220Z,7.50
2022-11-25T12:44:22.426Z,7.65
2022-11-25T12:47:07.842Z,7.41
2022-11-25T12:49:42.727Z,7.36
2022-11-25T12:52:24.170Z,7.39
2022-11-25T12:55:30.165Z,7.36
2022-11-25T12:58:18.705Z,7.36
2022-11-25T13:01:06.343Z,7.51
2022-11-25T13:04:01.067Z,7.71
2022-11-25T13:06:39.754Z,7.67
2022-11-25T13:09:21.607Z,7.43
2022-11-25T13:12:15.111Z,7.40
2022-11-25T13:14:45.751Z,7.66
2022-11-25T13:17:15.482Z,7.64
2022-11-25T13:19:42.441Z,7.48
2022-11-25T13:22:20.839Z,7.36
2022-11-25T13:24:48.273Z,7.35
2022-11-25T13:27:36.727Z,7.36
2022-11-25T13:30:04.842Z,7.44
2022-11-25T13:32:34.545Z,7.49
2022-11-25T13:35:31.526Z,7.54
2022-11-25T13:37:58.155Z,7.36
2022-11-25T13:40:39.236Z,7.30
2022-11-25T13:43:20.397Z,7.27
2022-11-25T13:45:47.505Z,7.12
2022-11-25T13:48:34.005Z,7.07
2022-11-25T13:51:23.003Z,7.06
2022-11-25T13:54:06.556Z,7.07
2022-11-25T13:56:37.308Z,7.09
2022-11-25T13:59:15.758Z,7.09
2022-11-25T14:01:54.497Z,7.04
2022-11-25T14:05:05.466Z,7.02
2022-11-25T14:07:53.953Z,7.02
2022-11-25T14:10:26.562Z,7.00
2022-11-25T14:13:33.176Z,6.99
2022-11-25T14:16:28.832Z,6.96
2022-11-25T14:19:51.198Z,6.91
2022-11-25T14:22:41.944Z,6.89
2022-11-25T14:25:20.774Z,6.85
2022-11-25T14:27:53.131Z,6.81
2022-11-25T14:30:19.992Z,6.80
2022-11-25T14:33:17.505Z,6.76
2022-11-25T14:35:49.948Z,6.74
2022-11-25T14:38:22.466Z,6.72
2022-11-25T14:41:16.429Z,6.67
2022-11-25T14:43:51.067Z,6.67
2022-11-25T14:46:24.412Z,6.67
2022-11-25T14:48:56.635Z,6.66
2022-11-25T14:51:41.941Z,6.64
2022-11-25T14:54:09.891Z,6.61
2022-11-25T14:56:37.972Z,6.60
2022-11-25T14:59:08.195Z,6.58
2022-11-25T15:01:37.816Z,6.53
2022-11-25T15:04:15.804Z,6.49
2022-11-25T15:06:49.585Z,6.44
2022-11-25T15:09:41.366Z,6.40
2022-11-25T15:12:13.962Z,6.39
2022-11-25T15:14:45.014Z,6.37
2022-11-25T15:17:38.151Z,6.33
2022-11-25T15:20:13.053Z,6.29
2022-11-25T15:22:40.073Z,6.26
2022-11-25T15:25:10.657Z,6.23
2022-11-25T15:27:48.774Z,6.21
2022-11-25T15:30:23.111Z,6.18
2022-11-25T15:32:50.582Z,6.09
2022-11-25T15:35:23.851Z,6.06
2022-11-25T15:37:50.774Z,6.06
2022-11-25T15:40:30.718Z,6.01
2022-11-25T15:43:04.403Z,5.94
2022-11-25T15:45:46.677Z,5.94
2022-11-25T15:48:42.683Z,5.94
2022-11-25T15:51:43.282Z,5.96
2022-11-25T15:54:13.783Z,5.91
2022-11-25T15:56:45.679Z,5.88
2022-11-25T15:59:47.569Z,5.87
2022-11-25T16:02:41.657Z,5.87
2022-11-25T16:05:26.179Z,5.83
2022-11-25T16:07:55.041Z,5.81
2022-11-25T16:10:25.075Z,5.82
2022-11-25T16:13:23.717Z,5.80
2022-11-25T16:15:55.105Z,5.75
2022-11-25T16:18:46.399Z,5.76
2022-11-25T16:21:22.730Z,5.75
2022-11-25T16:23:54.212Z,5.76
2022-11-25T16:27:03.426Z,5.73
2022-11-25T16:29:39.572Z,5.70
2022-11-25T16:32:14.731Z,5.68
2022-11-25T16:34:41.976Z,5.69
2022-11-25T16:37:08.596Z,5.65
2022-11-25T16:39:36.553Z,5.65
2022-11-25T16:42:04.736Z,5.67
2022-11-25T16:44:33.829Z,5.68
2022-11-25T16:47:00.495Z,5.69
2022-11-25T16:49:30.569Z,5.69
2022-11-25T16:51:57.419Z,5.69
2022-11-25T16:54:25.628Z,5.69
2022-11-25T16:56:55.357Z,5.69
2022-11-25T16:59:41.053Z,5.71
2022-11-25T17:02:17.582Z,5.70
2022-11-25T17:04:45.094Z,5.71
2022-11-25T17:07:32.178Z,5.73
2022-11-25T17:09:59.759Z,5.76
2022-11-25T17:12:31.720Z,5.77
2022-11-25T17:15:01.753Z,5.81
2022-11-25T17:17:29.059Z,5.80
2022-11-25T17:19:57.223Z,5.79
2022-11-25T17:22:28.532Z,5.79
2022-11-25T17:24:55.247Z,5.77
2022-11-25T17:27:32.976Z,5.74
2022-11-25T17:30:04.565Z,5.76
2022-11-25T17:32:32.085Z,5.76
2022-11-25T17:35:01.599Z,5.79
2022-11-25T17:37:31.395Z,5.78
2022-11-25T17:39:58.035Z,5.84
2022-11-25T17:42:33.842Z,5.84
2022-11-25T17:45:00.896Z,5.81
2022-11-25T17:47:27.994Z,5.84
2022-11-25T17:49:54.791Z,5.85
2022-11-25T17:52:21.419Z,5.82
2022-11-25T17:54:48.079Z,5.77
2022-11-25T17:57:21.104Z,5.70
2022-11-25T17:59:47.937Z,5.67
2022-11-25T18:02:20.355Z,5.56
2022-11-25T18:04:50.356Z,5.51
2022-11-25T18:07:17.823Z,5.42
2022-11-25T18:09:45.309Z,5.34
2022-11-25T18:12:33.128Z,5.24
2022-11-25T18:15:07.690Z,5.13
2022-11-25T18:17:38.143Z,5.04
2022-11-25T18:20:26.655Z,4.95
2022-11-25T18:22:54.100Z,4.87
2022-11-25T18:25:24.899Z,4.82
2022-11-25T18:27:56.319Z,4.73
2022-11-25T18:30:27.146Z,4.66
2022-11-25T18:32:55.686Z,4.57
2022-11-25T18:35:27.008Z,4.56
2022-11-25T18:37:56.900Z,4.54
2022-11-25T18:40:28.112Z,4.48
2022-11-25T18:42:58.006Z,4.37
2022-11-25T18:45:28.011Z,4.28
2022-11-25T18:47:54.892Z,4.17
2022-11-25T18:50:25.674Z,4.06
2022-11-25T18:52:53.283Z,3.95
2022-11-25T18:55:22.307Z,3.86
2022-11-25T18:57:51.781Z,3.81
2022-11-25T19:00:32.275Z,3.69
2022-11-25T19:03:02.827Z,3.59
2022-11-25T19:05:33.412Z,3.52
2022-11-25T19:08:00.344Z,3.43
2022-11-25T19:10:38.399Z,3.38
2022-11-25T19:13:34.225Z,3.37
2022-11-25T19:16:13.117Z,3.27
2022-11-25T19:18:40.075Z,3.24
2022-11-25T19:21:06.682Z,3.18
2022-11-25T19:23:36.113Z,3.14
2022-11-25T19:26:11.563Z,3.05
2022-11-25T19:28:38.634Z,3.00
2022-11-25T19:31:06.075Z,2.98
2022-11-25T19:33:43.560Z,2.93
2022-11-25T19:36:21.132Z,2.87
2022-11-25T19:38:48.021Z,2.84
2022-11-25T19:41:14.640Z,2.80
2022-11-25T19:43:41.393Z,2.77
2022-11-25T19:46:52.747Z,2.77
2022-11-25T19:49:21.211Z,2.76
2022-11-25T19:51:48.909Z,2.75
2022-11-25T19:54:18.508Z,2.71
2022-11-25T19:56:45.850Z,2.71
2022-11-25T19:59:12.452Z,2.67
2022-11-25T20:01:42.914Z,2.65
2022-11-25T20:04:19.552Z,2.63
2022-11-25T20:06:47.756Z,2.59
2022-11-25T20:09:14.350Z,2.58
2022-11-25T20:11:42.210Z,2.55
2022-11-25T20:14:12.092Z,2.53
2022-11-25T20:16:41.888Z,2.51
2022-11-25T20:19:18.057Z,2.46
2022-11-25T20:21:48.890Z,2.41
2022-11-25T20:24:19.646Z,2.39
2022-11-25T20:26:48.737Z,2.35
2022-11-25T20:29:19.043Z,2.32
2022-11-25T20:31:45.841Z,2.27
2022-11-25T20:34:13.888Z,2.24
2022-11-25T20:36:42.954Z,2.18
2022-11-25T20:39:17.349Z,2.15
2022-11-25T20:41:48.440Z,2.12
2022-11-25T20:44:16.222Z,2.07
2022-11-25T20:46:42.865Z,2.07
2022-11-25T20:49:27.758Z,2.05
2022-11-25T20:51:54.574Z,2.02
2022-11-25T20:54:24.053Z,1.98
2022-11-25T20:56:50.665Z,1.94
2022-11-25T20:59:22.433Z,1.90
2022-11-25T21:01:50.659Z,1.87
2022-11-25T21:04:18.493Z,1.79
2022-11-25T21:06:45.893Z,1.70
2022-11-25T21:09:23.492Z,1.63
2022-11-25T21:11:52.013Z,1.57
2022-11-25T21:14:20.148Z,1.52
2022-11-25T21:16:47.347Z,1.51
2022-11-25T21:19:15.953Z,1.44
2022-11-25T21:21:45.986Z,1.41
2022-11-25T21:24:33.070Z,1.37
2022-11-25T21:27:02.801Z,1.34
2022-11-25T21:29:30.145Z,1.29
2022-11-25T21:31:57.022Z,1.30
2022-11-25T21:34:23.776Z,1.31
2022-11-25T21:36:52.104Z,1.30
2022-11-25T21:39:28.904Z,1.27
2022-11-25T21:41:59.412Z,1.29
2022-11-25T21:44:46.452Z,1.30
2022-11-25T21:47:18.501Z,1.30
2022-11-25T21:49:45.959Z,1.30
2022-11-25T21:52:12.930Z,1.28
2022-11-25T21:54:39.909Z,1.23
2022-11-25T21:57:14.890Z,1.18
2022-11-25T21:59:41.662Z,1.11
2022-11-25T22:02:20.785Z,1.10
2022-11-25T22:04:48.161Z,1.09
2022-11-25T22:07:14.925Z,1.10
2022-11-25T22:09:42.084Z,1.10
2022-11-25T22:12:28.337Z,1.09
2022-11-25T22:14:56.564Z,1.13
2022-11-25T22:17:23.201Z,1.13
2022-11-25T22:19:52.414Z,1.11
2022-11-25T22:22:19.779Z,1.20
2022-11-25T22:24:46.673Z,1.17
2022-11-25T22:27:36.434Z,1.19
2022-11-25T22:30:04.452Z,1.20
2022-11-25T22:32:31.387Z,1.24
2022-11-25T22:34:57.965Z,1.25
2022-11-25T22:37:25.051Z,1.33
2022-11-25T22:39:52.019Z,1.39
2022-11-25T22:42:37.087Z,1.43
2022-11-25T22:45:06.692Z,1.44
2022-11-25T22:47:42.867Z,1.43
2022-11-25T22:50:35.526Z,1.40
2022-11-25T22:53:02.242Z,1.40
2022-11-25T22:55:32.323Z,1.39
2022-11-25T22:58:01.997Z,1.37
2022-11-25T23:00:32.508Z,1.31
2022-11-25T23:03:00.515Z,1.21
2022-11-25T23:05:33.884Z,1.08
2022-11-25T23:08:21.878Z,1.00
2022-11-25T23:10:49.736Z,0.91
2022-11-25T23:13:20.751Z,0.81
2022-11-25T23:15:59.445Z,0.73
2022-11-25T23:18:38.168Z,0.67
2022-11-25T23:21:07.335Z,0.61
2022-11-25T23:23:34.041Z,0.57
2022-11-25T23:26:00.706Z,0.53
2022-11-25T23:28:27.323Z,0.54
2022-11-25T23:30:58.893Z,0.48
2022-11-25T23:33:38.688Z,0.46
2022-11-25T23:36:30.757Z,0.45
2022-11-25T23:39:00.179Z,0.44
2022-11-25T23:41:29.699Z,0.43
2022-11-25T23:43:58.017Z,0.46
2022-11-25T23:46:31.495Z,0.47
2022-11-25T23:49:01.927Z,0.53
2022-11-25T23:51:29.761Z,0.56
2022-11-25T23:53:57.728Z,0.63
2022-11-25T23:56:26.526Z,0.70
2022-11-25T23:58:53.561Z,0.77
